sensor_id;sensor_type;location;lat;lon;timestamp;temperature;humidity
52799;DHT22;38667;42.872;74.622;2022-08-11T00:00:00;20.20;56.00
52799;DHT22;38667;42.872;74.622;2022-08-11T00:02:30;20.30;56.30
52799;DHT22;38667;42.872;74.622;2022-08-11T00:05:04;20.30;55.50
52799;DHT22;38667;42.872;74.622;2022-08-11T00:07:31;20.40;55.40
52799;DHT22;38667;42.872;74.622;2022-08-11T00:09:58;20.40;56.20
52799;DHT22;38667;42.872;74.622;2022-08-11T00:12:25;20.40;56.30
52799;DHT22;38667;42.872;74.622;2022-08-11T00:14:56;20.30;56.40
52799;DHT22;38667;42.872;74.622;2022-08-11T00:17:27;20.30;56.80
52799;DHT22;38667;42.872;74.622;2022-08-11T00:20:01;20.30;57.20
52799;DHT22;38667;42.872;74.622;2022-08-11T00:22:29;20.20;56.70
52799;DHT22;38667;42.872;74.622;2022-08-11T00:24:57;20.20;56.70
52799;DHT22;38667;42.872;74.622;2022-08-11T00:27:32;20.00;57.10
52799;DHT22;38667;42.872;74.622;2022-08-11T00:29:59;19.70;58.20
52799;DHT22;38667;42.872;74.622;2022-08-11T00:32:27;19.50;58.90
52799;DHT22;38667;42.872;74.622;2022-08-11T00:34:54;19.40;59.70
52799;DHT22;38667;42.872;74.622;2022-08-11T00:37:21;19.40;58.40
52799;DHT22;38667;42.872;74.622;2022-08-11T00:39:51;19.40;59.70
52799;DHT22;38667;42.872;74.622;2022-08-11T00:42:28;19.40;58.90
52799;DHT22;38667;42.872;74.622;2022-08-11T00:45:05;19.50;58.80
52799;DHT22;38667;42.872;74.622;2022-08-11T00:47:45;19.50;59.60
52799;DHT22;38667;42.872;74.622;2022-08-11T00:50:18;19.70;58.70
52799;DHT22;38667;42.872;74.622;2022-08-11T00:53:07;20.00;57.80
52799;DHT22;38667;42.872;74.622;2022-08-11T00:56:12;20.10;57.90
52799;DHT22;38667;42.872;74.622;2022-08-11T00:59:14;20.30;57.70
52799;DHT22;38667;42.872;74.622;2022-08-11T01:01:56;20.40;57.30
52799;DHT22;38667;42.872;74.622;2022-08-11T01:10:48;20.90;53.80
52799;DHT22;38667;42.872;74.622;2022-08-11T01:20:01;21.10;54.40
52799;DHT22;38667;42.872;74.622;2022-08-11T01:29:48;21.20;53.60
52799;DHT22;38667;42.872;74.622;2022-08-11T01:33:03;21.30;54.80
52799;DHT22;38667;42.872;74.622;2022-08-11T01:36:09;21.30;55.10
52799;DHT22;38667;42.872;74.622;2022-08-11T01:39:08;21.30;56.00
52799;DHT22;38667;42.872;74.622;2022-08-11T01:42:00;21.30;55.10
52799;DHT22;38667;42.872;74.622;2022-08-11T01:47:31;21.40;54.70
52799;DHT22;38667;42.872;74.622;2022-08-11T01:50:08;21.50;54.80
52799;DHT22;38667;42.872;74.622;2022-08-11T01:52:53;21.60;55.80
52799;DHT22;38667;42.872;74.622;2022-08-11T01:55:29;21.60;55.90
52799;DHT22;38667;42.872;74.622;2022-08-11T01:58:06;21.70;55.80
52799;DHT22;38667;42.872;74.622;2022-08-11T02:00:49;21.70;55.60
52799;DHT22;38667;42.872;74.622;2022-08-11T02:03:22;21.70;55.60
52799;DHT22;38667;42.872;74.622;2022-08-11T02:06:00;21.70;56.60
52799;DHT22;38667;42.872;74.622;2022-08-11T02:08:41;21.40;57.50
52799;DHT22;38667;42.872;74.622;2022-08-11T02:11:21;21.20;56.70
52799;DHT22;38667;42.872;74.622;2022-08-11T02:13:52;21.00;57.10
52799;DHT22;38667;42.872;74.622;2022-08-11T02:16:32;20.90;58.70
52799;DHT22;38667;42.872;74.622;2022-08-11T02:19:09;20.80;57.90
52799;DHT22;38667;42.872;74.622;2022-08-11T02:21:43;20.80;59.20
52799;DHT22;38667;42.872;74.622;2022-08-11T02:24:16;20.80;58.50
52799;DHT22;38667;42.872;74.622;2022-08-11T02:26:48;20.80;58.00
52799;DHT22;38667;42.872;74.622;2022-08-11T02:29:19;20.90;57.20
52799;DHT22;38667;42.872;74.622;2022-08-11T02:31:58;21.00;56.00
52799;DHT22;38667;42.872;74.622;2022-08-11T02:34:37;21.30;55.40
52799;DHT22;38667;42.872;74.622;2022-08-11T02:37:16;21.70;54.10
52799;DHT22;38667;42.872;74.622;2022-08-11T02:39:50;21.90;49.70
52799;DHT22;38667;42.872;74.622;2022-08-11T02:42:28;22.10;51.30
52799;DHT22;38667;42.872;74.622;2022-08-11T02:45:10;22.30;50.60
52799;DHT22;38667;42.872;74.622;2022-08-11T02:47:45;22.30;49.00
52799;DHT22;38667;42.872;74.622;2022-08-11T02:50:20;22.40;47.30
52799;DHT22;38667;42.872;74.622;2022-08-11T02:52:54;22.50;47.60
52799;DHT22;38667;42.872;74.622;2022-08-11T02:55:30;22.40;46.80
52799;DHT22;38667;42.872;74.622;2022-08-11T02:58:08;22.60;48.70
52799;DHT22;38667;42.872;74.622;2022-08-11T03:00:45;22.90;48.00
52799;DHT22;38667;42.872;74.622;2022-08-11T03:03:22;22.90;48.40
52799;DHT22;38667;42.872;74.622;2022-08-11T03:06:06;23.10;48.10
52799;DHT22;38667;42.872;74.622;2022-08-11T03:08:44;23.30;46.20
52799;DHT22;38667;42.872;74.622;2022-08-11T03:11:19;23.30;45.70
52799;DHT22;38667;42.872;74.622;2022-08-11T03:13:54;23.30;46.60
52799;DHT22;38667;42.872;74.622;2022-08-11T03:16:31;23.30;45.50
52799;DHT22;38667;42.872;74.622;2022-08-11T03:19:07;23.40;44.50
52799;DHT22;38667;42.872;74.622;2022-08-11T03:21:44;23.40;44.10
52799;DHT22;38667;42.872;74.622;2022-08-11T03:24:16;23.50;44.10
52799;DHT22;38667;42.872;74.622;2022-08-11T03:26:53;23.50;45.50
52799;DHT22;38667;42.872;74.622;2022-08-11T03:29:28;23.40;45.10
52799;DHT22;38667;42.872;74.622;2022-08-11T03:32:00;23.40;45.40
52799;DHT22;38667;42.872;74.622;2022-08-11T03:34:30;23.50;46.00
52799;DHT22;38667;42.872;74.622;2022-08-11T03:37:25;23.50;44.30
52799;DHT22;38667;42.872;74.622;2022-08-11T03:39:59;23.70;44.30
52799;DHT22;38667;42.872;74.622;2022-08-11T03:42:35;23.70;44.40
52799;DHT22;38667;42.872;74.622;2022-08-11T03:45:19;23.80;45.10
52799;DHT22;38667;42.872;74.622;2022-08-11T03:48:09;23.70;44.30
52799;DHT22;38667;42.872;74.622;2022-08-11T03:50:55;23.60;43.80
52799;DHT22;38667;42.872;74.622;2022-08-11T03:53:50;23.40;44.50
52799;DHT22;38667;42.872;74.622;2022-08-11T04:02:58;23.90;44.40
52799;DHT22;38667;42.872;74.622;2022-08-11T04:05:46;24.10;44.10
52799;DHT22;38667;42.872;74.622;2022-08-11T04:11:29;24.10;44.40
52799;DHT22;38667;42.872;74.622;2022-08-11T04:17:24;24.20;43.20
52799;DHT22;38667;42.872;74.622;2022-08-11T04:29:29;24.40;43.90
52799;DHT22;38667;42.872;74.622;2022-08-11T04:32:08;24.50;44.50
52799;DHT22;38667;42.872;74.622;2022-08-11T04:34:53;24.50;41.50
52799;DHT22;38667;42.872;74.622;2022-08-11T04:37:44;24.40;42.00
52799;DHT22;38667;42.872;74.622;2022-08-11T04:40:42;24.50;43.20
52799;DHT22;38667;42.872;74.622;2022-08-11T04:49:34;24.70;43.50
52799;DHT22;38667;42.872;74.622;2022-08-11T04:52:27;24.70;43.10
52799;DHT22;38667;42.872;74.622;2022-08-11T04:55:14;24.60;42.90
52799;DHT22;38667;42.872;74.622;2022-08-11T04:57:58;24.70;43.90
52799;DHT22;38667;42.872;74.622;2022-08-11T05:00:32;24.80;43.40
52799;DHT22;38667;42.872;74.622;2022-08-11T05:03:43;24.90;43.20
52799;DHT22;38667;42.872;74.622;2022-08-11T05:06:54;24.90;43.00
52799;DHT22;38667;42.872;74.622;2022-08-11T05:09:45;24.90;43.40
52799;DHT22;38667;42.872;74.622;2022-08-11T05:12:41;25.00;42.20
52799;DHT22;38667;42.872;74.622;2022-08-11T05:15:12;25.00;43.10
52799;DHT22;38667;42.872;74.622;2022-08-11T05:17:43;25.10;41.70
52799;DHT22;38667;42.872;74.622;2022-08-11T05:20:11;25.10;43.40
52799;DHT22;38667;42.872;74.622;2022-08-11T05:22:43;25.10;42.70
52799;DHT22;38667;42.872;74.622;2022-08-11T05:25:15;25.10;41.40
52799;DHT22;38667;42.872;74.622;2022-08-11T05:28:04;25.10;42.00
52799;DHT22;38667;42.872;74.622;2022-08-11T05:30:31;25.20;43.30
52799;DHT22;38667;42.872;74.622;2022-08-11T05:33:01;25.20;41.80
52799;DHT22;38667;42.872;74.622;2022-08-11T05:35:31;25.30;41.80
52799;DHT22;38667;42.872;74.622;2022-08-11T05:37:58;25.20;42.90
52799;DHT22;38667;42.872;74.622;2022-08-11T05:40:25;25.30;44.00
52799;DHT22;38667;42.872;74.622;2022-08-11T05:42:57;25.30;42.60
52799;DHT22;38667;42.872;74.622;2022-08-11T05:45:25;25.40;42.90
52799;DHT22;38667;42.872;74.622;2022-08-11T05:47:52;25.70;43.40
52799;DHT22;38667;42.872;74.622;2022-08-11T05:50:21;26.10;42.10
52799;DHT22;38667;42.872;74.622;2022-08-11T05:52:47;26.60;41.00
52799;DHT22;38667;42.872;74.622;2022-08-11T05:55:15;26.40;42.80
52799;DHT22;38667;42.872;74.622;2022-08-11T05:57:41;26.20;42.70
52799;DHT22;38667;42.872;74.622;2022-08-11T06:00:10;26.60;42.90
52799;DHT22;38667;42.872;74.622;2022-08-11T06:02:41;27.70;41.40
52799;DHT22;38667;42.872;74.622;2022-08-11T06:05:09;28.70;40.00
52799;DHT22;38667;42.872;74.622;2022-08-11T06:07:36;29.30;38.20
52799;DHT22;38667;42.872;74.622;2022-08-11T06:10:04;29.70;38.50
52799;DHT22;38667;42.872;74.622;2022-08-11T06:12:31;29.80;38.10
52799;DHT22;38667;42.872;74.622;2022-08-11T06:15:02;30.10;38.90
52799;DHT22;38667;42.872;74.622;2022-08-11T06:17:31;30.30;36.30
52799;DHT22;38667;42.872;74.622;2022-08-11T06:19:59;30.30;37.20
52799;DHT22;38667;42.872;74.622;2022-08-11T06:22:27;29.90;37.70
52799;DHT22;38667;42.872;74.622;2022-08-11T06:24:56;29.60;37.60
52799;DHT22;38667;42.872;74.622;2022-08-11T06:27:23;29.10;38.30
52799;DHT22;38667;42.872;74.622;2022-08-11T06:29:51;28.50;39.10
52799;DHT22;38667;42.872;74.622;2022-08-11T06:32:18;28.20;40.20
52799;DHT22;38667;42.872;74.622;2022-08-11T06:34:57;28.10;40.40
52799;DHT22;38667;42.872;74.622;2022-08-11T06:37:43;28.00;40.20
52799;DHT22;38667;42.872;74.622;2022-08-11T06:40:21;27.90;41.30
52799;DHT22;38667;42.872;74.622;2022-08-11T06:42:53;27.90;41.50
52799;DHT22;38667;42.872;74.622;2022-08-11T06:45:29;27.80;41.70
52799;DHT22;38667;42.872;74.622;2022-08-11T06:47:56;28.00;42.50
52799;DHT22;38667;42.872;74.622;2022-08-11T06:50:24;28.40;40.50
52799;DHT22;38667;42.872;74.622;2022-08-11T06:52:52;28.60;39.70
52799;DHT22;38667;42.872;74.622;2022-08-11T06:55:22;28.70;39.60
52799;DHT22;38667;42.872;74.622;2022-08-11T06:57:49;28.50;40.50
52799;DHT22;38667;42.872;74.622;2022-08-11T07:00:17;28.60;41.40
52799;DHT22;38667;42.872;74.622;2022-08-11T07:02:48;28.80;41.30
52799;DHT22;38667;42.872;74.622;2022-08-11T07:05:21;28.90;39.70
52799;DHT22;38667;42.872;74.622;2022-08-11T07:08:24;29.00;40.50
52799;DHT22;38667;42.872;74.622;2022-08-11T07:11:08;28.90;39.80
52799;DHT22;38667;42.872;74.622;2022-08-11T07:13:40;28.90;39.20
52799;DHT22;38667;42.872;74.622;2022-08-11T07:16:08;28.70;38.30
52799;DHT22;38667;42.872;74.622;2022-08-11T07:18:36;28.70;38.60
52799;DHT22;38667;42.872;74.622;2022-08-11T07:21:12;28.50;39.80
52799;DHT22;38667;42.872;74.622;2022-08-11T07:23:40;28.50;38.90
52799;DHT22;38667;42.872;74.622;2022-08-11T07:26:07;28.80;38.90
52799;DHT22;38667;42.872;74.622;2022-08-11T07:28:38;29.10;38.80
52799;DHT22;38667;42.872;74.622;2022-08-11T07:31:09;29.50;38.90
52799;DHT22;38667;42.872;74.622;2022-08-11T07:33:43;29.50;38.70
52799;DHT22;38667;42.872;74.622;2022-08-11T07:36:11;29.30;37.30
52799;DHT22;38667;42.872;74.622;2022-08-11T07:38:42;29.00;39.00
52799;DHT22;38667;42.872;74.622;2022-08-11T07:41:09;28.90;38.60
52799;DHT22;38667;42.872;74.622;2022-08-11T07:43:37;28.90;39.10
52799;DHT22;38667;42.872;74.622;2022-08-11T07:46:05;28.90;38.90
52799;DHT22;38667;42.872;74.622;2022-08-11T07:48:33;28.90;38.10
52799;DHT22;38667;42.872;74.622;2022-08-11T07:51:00;28.90;39.00
52799;DHT22;38667;42.872;74.622;2022-08-11T07:53:29;28.90;38.30
52799;DHT22;38667;42.872;74.622;2022-08-11T07:55:59;28.80;39.10
52799;DHT22;38667;42.872;74.622;2022-08-11T07:58:27;28.40;39.50
52799;DHT22;38667;42.872;74.622;2022-08-11T08:00:55;28.20;41.70
52799;DHT22;38667;42.872;74.622;2022-08-11T08:03:22;27.90;40.10
52799;DHT22;38667;42.872;74.622;2022-08-11T08:05:49;27.80;40.00
52799;DHT22;38667;42.872;74.622;2022-08-11T08:08:16;27.80;41.60
52799;DHT22;38667;42.872;74.622;2022-08-11T08:10:42;27.80;41.50
52799;DHT22;38667;42.872;74.622;2022-08-11T08:13:11;27.70;39.20
52799;DHT22;38667;42.872;74.622;2022-08-11T08:15:38;27.50;40.30
52799;DHT22;38667;42.872;74.622;2022-08-11T08:18:06;27.30;40.20
52799;DHT22;38667;42.872;74.622;2022-08-11T08:20:35;27.20;42.00
52799;DHT22;38667;42.872;74.622;2022-08-11T08:23:02;27.10;42.50
52799;DHT22;38667;42.872;74.622;2022-08-11T08:25:31;27.00;41.40
52799;DHT22;38667;42.872;74.622;2022-08-11T08:27:58;27.00;42.70
52799;DHT22;38667;42.872;74.622;2022-08-11T08:30:27;26.80;42.10
52799;DHT22;38667;42.872;74.622;2022-08-11T08:32:54;26.50;43.30
52799;DHT22;38667;42.872;74.622;2022-08-11T08:35:21;26.40;43.20
52799;DHT22;38667;42.872;74.622;2022-08-11T08:37:49;26.30;44.00
52799;DHT22;38667;42.872;74.622;2022-08-11T08:40:16;26.40;43.60
52799;DHT22;38667;42.872;74.622;2022-08-11T08:42:47;26.40;43.30
52799;DHT22;38667;42.872;74.622;2022-08-11T08:45:14;26.40;43.40
52799;DHT22;38667;42.872;74.622;2022-08-11T08:47:44;26.40;43.30
52799;DHT22;38667;42.872;74.622;2022-08-11T08:50:12;26.40;43.50
52799;DHT22;38667;42.872;74.622;2022-08-11T08:52:42;26.20;44.80
52799;DHT22;38667;42.872;74.622;2022-08-11T08:55:17;26.10;45.00
52799;DHT22;38667;42.872;74.622;2022-08-11T08:57:43;25.90;44.60
52799;DHT22;38667;42.872;74.622;2022-08-11T09:00:14;25.80;44.70
52799;DHT22;38667;42.872;74.622;2022-08-11T09:02:44;25.80;44.70
52799;DHT22;38667;42.872;74.622;2022-08-11T09:05:12;25.80;46.30
52799;DHT22;38667;42.872;74.622;2022-08-11T09:07:42;25.70;47.60
52799;DHT22;38667;42.872;74.622;2022-08-11T09:10:09;25.60;49.00
52799;DHT22;38667;42.872;74.622;2022-08-11T09:12:38;25.50;46.30
52799;DHT22;38667;42.872;74.622;2022-08-11T09:15:07;25.50;45.30
52799;DHT22;38667;42.872;74.622;2022-08-11T09:17:36;25.70;44.20
52799;DHT22;38667;42.872;74.622;2022-08-11T09:20:06;25.80;44.10
52799;DHT22;38667;42.872;74.622;2022-08-11T09:22:36;25.80;44.50
52799;DHT22;38667;42.872;74.622;2022-08-11T09:25:04;25.70;46.40
52799;DHT22;38667;42.872;74.622;2022-08-11T09:27:31;25.70;46.10
52799;DHT22;38667;42.872;74.622;2022-08-11T09:29:58;25.60;48.20
52799;DHT22;38667;42.872;74.622;2022-08-11T09:32:24;25.60;47.20
52799;DHT22;38667;42.872;74.622;2022-08-11T09:34:51;25.70;46.50
52799;DHT22;38667;42.872;74.622;2022-08-11T09:37:21;25.80;47.10
52799;DHT22;38667;42.872;74.622;2022-08-11T09:39:48;25.90;44.00
52799;DHT22;38667;42.872;74.622;2022-08-11T09:42:15;26.10;43.80
52799;DHT22;38667;42.872;74.622;2022-08-11T09:44:42;26.10;43.20
52799;DHT22;38667;42.872;74.622;2022-08-11T09:47:09;26.10;43.20
52799;DHT22;38667;42.872;74.622;2022-08-11T09:49:37;26.00;42.50
52799;DHT22;38667;42.872;74.622;2022-08-11T09:52:04;25.90;42.30
52799;DHT22;38667;42.872;74.622;2022-08-11T09:54:32;25.90;42.10
52799;DHT22;38667;42.872;74.622;2022-08-11T09:56:58;25.90;42.90
52799;DHT22;38667;42.872;74.622;2022-08-11T09:59:25;25.90;42.90
52799;DHT22;38667;42.872;74.622;2022-08-11T10:01:57;26.00;42.90
52799;DHT22;38667;42.872;74.622;2022-08-11T10:04:26;25.90;43.10
52799;DHT22;38667;42.872;74.622;2022-08-11T10:06:53;26.00;43.30
52799;DHT22;38667;42.872;74.622;2022-08-11T10:09:22;26.30;42.60
52799;DHT22;38667;42.872;74.622;2022-08-11T10:11:52;26.30;42.40
52799;DHT22;38667;42.872;74.622;2022-08-11T10:14:20;26.20;43.90
52799;DHT22;38667;42.872;74.622;2022-08-11T10:16:47;26.10;40.20
52799;DHT22;38667;42.872;74.622;2022-08-11T10:19:16;26.30;40.10
52799;DHT22;38667;42.872;74.622;2022-08-11T10:21:46;26.30;40.80
52799;DHT22;38667;42.872;74.622;2022-08-11T10:24:13;26.40;40.00
52799;DHT22;38667;42.872;74.622;2022-08-11T10:26:42;26.40;39.90
52799;DHT22;38667;42.872;74.622;2022-08-11T10:29:11;26.30;39.90
52799;DHT22;38667;42.872;74.622;2022-08-11T10:31:39;26.40;40.20
52799;DHT22;38667;42.872;74.622;2022-08-11T10:34:07;26.40;39.40
52799;DHT22;38667;42.872;74.622;2022-08-11T10:36:37;26.40;39.60
52799;DHT22;38667;42.872;74.622;2022-08-11T10:39:05;26.50;38.90
52799;DHT22;38667;42.872;74.622;2022-08-11T10:41:33;26.50;39.40
52799;DHT22;38667;42.872;74.622;2022-08-11T10:44:00;26.50;39.00
52799;DHT22;38667;42.872;74.622;2022-08-11T10:46:29;26.50;39.00
52799;DHT22;38667;42.872;74.622;2022-08-11T10:48:56;26.40;39.20
52799;DHT22;38667;42.872;74.622;2022-08-11T10:51:24;26.50;39.40
52799;DHT22;38667;42.872;74.622;2022-08-11T10:53:51;26.40;39.40
52799;DHT22;38667;42.872;74.622;2022-08-11T10:56:19;26.40;39.40
52799;DHT22;38667;42.872;74.622;2022-08-11T10:58:46;26.40;39.70
52799;DHT22;38667;42.872;74.622;2022-08-11T11:01:13;26.40;40.00
52799;DHT22;38667;42.872;74.622;2022-08-11T11:03:42;26.40;40.20
52799;DHT22;38667;42.872;74.622;2022-08-11T11:06:19;26.30;40.90
52799;DHT22;38667;42.872;74.622;2022-08-11T11:08:46;26.10;41.30
52799;DHT22;38667;42.872;74.622;2022-08-11T11:11:14;25.90;41.10
52799;DHT22;38667;42.872;74.622;2022-08-11T11:13:45;25.90;41.60
52799;DHT22;38667;42.872;74.622;2022-08-11T11:16:12;25.90;41.50
52799;DHT22;38667;42.872;74.622;2022-08-11T11:18:40;25.90;41.60
52799;DHT22;38667;42.872;74.622;2022-08-11T11:21:08;25.80;43.00
52799;DHT22;38667;42.872;74.622;2022-08-11T11:23:39;25.70;44.50
52799;DHT22;38667;42.872;74.622;2022-08-11T11:31:55;25.20;46.30
52799;DHT22;38667;42.872;74.622;2022-08-11T11:34:40;25.20;46.00
52799;DHT22;38667;42.872;74.622;2022-08-11T11:37:10;25.40;45.20
52799;DHT22;38667;42.872;74.622;2022-08-11T11:39:37;25.60;44.00
52799;DHT22;38667;42.872;74.622;2022-08-11T11:42:06;25.70;43.80
52799;DHT22;38667;42.872;74.622;2022-08-11T11:44:34;25.90;43.90
52799;DHT22;38667;42.872;74.622;2022-08-11T11:47:01;26.10;42.50
52799;DHT22;38667;42.872;74.622;2022-08-11T11:49:30;26.20;41.50
52799;DHT22;38667;42.872;74.622;2022-08-11T11:51:58;26.30;41.30
52799;DHT22;38667;42.872;74.622;2022-08-11T11:54:27;26.20;41.00
52799;DHT22;38667;42.872;74.622;2022-08-11T11:56:55;26.20;41.40
52799;DHT22;38667;42.872;74.622;2022-08-11T11:59:23;26.20;40.90
52799;DHT22;38667;42.872;74.622;2022-08-11T12:01:51;26.20;40.50
52799;DHT22;38667;42.872;74.622;2022-08-11T12:04:19;26.30;40.60
52799;DHT22;38667;42.872;74.622;2022-08-11T12:06:48;26.30;40.00
52799;DHT22;38667;42.872;74.622;2022-08-11T12:09:15;26.30;39.80
52799;DHT22;38667;42.872;74.622;2022-08-11T12:11:41;26.40;39.70
52799;DHT22;38667;42.872;74.622;2022-08-11T12:14:10;26.50;39.80
52799;DHT22;38667;42.872;74.622;2022-08-11T12:16:38;26.50;39.60
52799;DHT22;38667;42.872;74.622;2022-08-11T12:19:07;26.50;39.80
52799;DHT22;38667;42.872;74.622;2022-08-11T12:21:34;26.50;39.70
52799;DHT22;38667;42.872;74.622;2022-08-11T12:24:03;26.50;39.80
52799;DHT22;38667;42.872;74.622;2022-08-11T12:26:30;26.50;39.70
52799;DHT22;38667;42.872;74.622;2022-08-11T12:28:58;26.50;40.50
52799;DHT22;38667;42.872;74.622;2022-08-11T12:31:25;26.50;40.00
52799;DHT22;38667;42.872;74.622;2022-08-11T12:33:51;26.50;39.80
52799;DHT22;38667;42.872;74.622;2022-08-11T12:36:18;26.40;40.00
52799;DHT22;38667;42.872;74.622;2022-08-11T12:38:46;26.40;39.80
52799;DHT22;38667;42.872;74.622;2022-08-11T12:41:17;26.50;38.50
52799;DHT22;38667;42.872;74.622;2022-08-11T12:43:45;26.40;39.10
52799;DHT22;38667;42.872;74.622;2022-08-11T12:46:18;26.40;39.80
52799;DHT22;38667;42.872;74.622;2022-08-11T12:48:46;26.40;39.90
52799;DHT22;38667;42.872;74.622;2022-08-11T12:51:18;26.40;39.70
52799;DHT22;38667;42.872;74.622;2022-08-11T12:53:52;26.40;39.50
52799;DHT22;38667;42.872;74.622;2022-08-11T12:56:20;26.40;39.30
52799;DHT22;38667;42.872;74.622;2022-08-11T12:58:48;26.40;39.20
52799;DHT22;38667;42.872;74.622;2022-08-11T13:01:16;26.30;39.30
52799;DHT22;38667;42.872;74.622;2022-08-11T13:03:43;26.30;38.90
52799;DHT22;38667;42.872;74.622;2022-08-11T13:06:10;26.30;38.60
52799;DHT22;38667;42.872;74.622;2022-08-11T13:08:38;26.30;38.70
52799;DHT22;38667;42.872;74.622;2022-08-11T13:11:05;26.30;38.80
52799;DHT22;38667;42.872;74.622;2022-08-11T13:13:33;26.30;39.00
52799;DHT22;38667;42.872;74.622;2022-08-11T13:16:00;26.20;39.00
52799;DHT22;38667;42.872;74.622;2022-08-11T13:18:27;26.20;39.10
52799;DHT22;38667;42.872;74.622;2022-08-11T13:20:55;26.10;39.40
52799;DHT22;38667;42.872;74.622;2022-08-11T13:23:23;26.10;39.40
52799;DHT22;38667;42.872;74.622;2022-08-11T13:25:51;26.10;39.40
52799;DHT22;38667;42.872;74.622;2022-08-11T13:28:18;26.10;39.30
52799;DHT22;38667;42.872;74.622;2022-08-11T13:30:48;26.10;39.30
52799;DHT22;38667;42.872;74.622;2022-08-11T13:33:17;26.10;39.00
52799;DHT22;38667;42.872;74.622;2022-08-11T13:35:45;26.10;39.10
52799;DHT22;38667;42.872;74.622;2022-08-11T13:38:12;26.10;39.20
52799;DHT22;38667;42.872;74.622;2022-08-11T13:40:40;26.10;39.40
52799;DHT22;38667;42.872;74.622;2022-08-11T13:43:07;26.00;39.50
52799;DHT22;38667;42.872;74.622;2022-08-11T13:45:34;26.00;39.40
52799;DHT22;38667;42.872;74.622;2022-08-11T13:48:07;26.00;39.40
52799;DHT22;38667;42.872;74.622;2022-08-11T13:50:34;25.90;39.70
52799;DHT22;38667;42.872;74.622;2022-08-11T13:53:01;25.90;40.10
52799;DHT22;38667;42.872;74.622;2022-08-11T13:55:28;25.80;40.10
52799;DHT22;38667;42.872;74.622;2022-08-11T13:57:54;25.80;40.20
52799;DHT22;38667;42.872;74.622;2022-08-11T14:00:21;25.70;40.30
52799;DHT22;38667;42.872;74.622;2022-08-11T14:02:49;25.70;41.70
52799;DHT22;38667;42.872;74.622;2022-08-11T14:05:25;25.50;43.40
52799;DHT22;38667;42.872;74.622;2022-08-11T14:07:59;25.50;44.60
52799;DHT22;38667;42.872;74.622;2022-08-11T14:10:28;25.40;43.80
52799;DHT22;38667;42.872;74.622;2022-08-11T14:12:59;25.30;43.60
52799;DHT22;38667;42.872;74.622;2022-08-11T14:15:30;25.20;45.50
52799;DHT22;38667;42.872;74.622;2022-08-11T14:17:58;25.10;45.90
52799;DHT22;38667;42.872;74.622;2022-08-11T14:20:29;25.00;46.00
52799;DHT22;38667;42.872;74.622;2022-08-11T14:22:56;24.90;47.90
52799;DHT22;38667;42.872;74.622;2022-08-11T14:25:23;24.80;47.80
52799;DHT22;38667;42.872;74.622;2022-08-11T14:27:49;24.70;47.40
52799;DHT22;38667;42.872;74.622;2022-08-11T14:30:15;24.60;48.70
52799;DHT22;38667;42.872;74.622;2022-08-11T14:32:42;24.60;48.80
52799;DHT22;38667;42.872;74.622;2022-08-11T14:35:09;24.50;51.70
52799;DHT22;38667;42.872;74.622;2022-08-11T14:37:36;24.40;49.20
52799;DHT22;38667;42.872;74.622;2022-08-11T14:40:05;24.30;49.60
52799;DHT22;38667;42.872;74.622;2022-08-11T14:42:33;24.30;51.10
52799;DHT22;38667;42.872;74.622;2022-08-11T14:45:01;24.20;50.50
52799;DHT22;38667;42.872;74.622;2022-08-11T14:47:30;24.10;49.80
52799;DHT22;38667;42.872;74.622;2022-08-11T14:49:58;24.00;48.80
52799;DHT22;38667;42.872;74.622;2022-08-11T14:52:26;23.90;49.10
52799;DHT22;38667;42.872;74.622;2022-08-11T14:54:54;23.90;51.10
52799;DHT22;38667;42.872;74.622;2022-08-11T14:57:21;23.90;51.30
52799;DHT22;38667;42.872;74.622;2022-08-11T14:59:49;23.80;50.80
52799;DHT22;38667;42.872;74.622;2022-08-11T15:02:17;23.80;49.40
52799;DHT22;38667;42.872;74.622;2022-08-11T15:04:44;23.90;49.70
52799;DHT22;38667;42.872;74.622;2022-08-11T15:07:11;24.00;49.50
52799;DHT22;38667;42.872;74.622;2022-08-11T15:09:39;24.10;48.90
52799;DHT22;38667;42.872;74.622;2022-08-11T15:12:08;24.00;48.00
52799;DHT22;38667;42.872;74.622;2022-08-11T15:14:35;23.90;49.70
52799;DHT22;38667;42.872;74.622;2022-08-11T15:17:01;23.90;51.00
52799;DHT22;38667;42.872;74.622;2022-08-11T15:19:29;23.80;51.50
52799;DHT22;38667;42.872;74.622;2022-08-11T15:21:56;23.90;51.90
52799;DHT22;38667;42.872;74.622;2022-08-11T15:24:23;24.00;50.50
52799;DHT22;38667;42.872;74.622;2022-08-11T15:26:50;24.00;50.30
52799;DHT22;38667;42.872;74.622;2022-08-11T15:29:21;23.90;50.00
52799;DHT22;38667;42.872;74.622;2022-08-11T15:31:48;23.90;50.40
52799;DHT22;38667;42.872;74.622;2022-08-11T15:34:18;23.80;50.60
52799;DHT22;38667;42.872;74.622;2022-08-11T15:36:46;23.80;51.70
52799;DHT22;38667;42.872;74.622;2022-08-11T15:39:17;23.90;51.70
52799;DHT22;38667;42.872;74.622;2022-08-11T15:41:47;24.10;49.70
52799;DHT22;38667;42.872;74.622;2022-08-11T15:44:15;24.10;49.90
52799;DHT22;38667;42.872;74.622;2022-08-11T15:46:46;24.10;51.20
52799;DHT22;38667;42.872;74.622;2022-08-11T15:49:14;24.00;51.90
52799;DHT22;38667;42.872;74.622;2022-08-11T15:51:49;24.10;50.20
52799;DHT22;38667;42.872;74.622;2022-08-11T15:54:19;24.30;49.90
52799;DHT22;38667;42.872;74.622;2022-08-11T15:56:50;24.30;50.00
52799;DHT22;38667;42.872;74.622;2022-08-11T15:59:18;24.30;50.40
52799;DHT22;38667;42.872;74.622;2022-08-11T16:01:48;24.20;50.50
52799;DHT22;38667;42.872;74.622;2022-08-11T16:04:19;24.10;49.50
52799;DHT22;38667;42.872;74.622;2022-08-11T16:06:50;24.00;48.20
52799;DHT22;38667;42.872;74.622;2022-08-11T16:09:22;24.00;47.50
52799;DHT22;38667;42.872;74.622;2022-08-11T16:11:50;24.10;47.80
52799;DHT22;38667;42.872;74.622;2022-08-11T16:14:18;24.10;47.60
52799;DHT22;38667;42.872;74.622;2022-08-11T16:16:47;24.10;48.50
52799;DHT22;38667;42.872;74.622;2022-08-11T16:19:15;24.10;48.10
52799;DHT22;38667;42.872;74.622;2022-08-11T16:21:44;24.10;49.10
52799;DHT22;38667;42.872;74.622;2022-08-11T16:24:12;24.10;48.80
52799;DHT22;38667;42.872;74.622;2022-08-11T16:26:41;24.10;49.20
52799;DHT22;38667;42.872;74.622;2022-08-11T16:29:09;24.20;49.20
52799;DHT22;38667;42.872;74.622;2022-08-11T16:31:37;24.30;49.10
52799;DHT22;38667;42.872;74.622;2022-08-11T16:34:06;24.30;49.80
52799;DHT22;38667;42.872;74.622;2022-08-11T16:36:34;24.30;49.30
52799;DHT22;38667;42.872;74.622;2022-08-11T16:39:01;24.40;48.90